Aeroporto :
LOGIN :

Iscrizione | Disclaimer

   EN    FR    IT 

 










Sommario :    VFR   VFR Marginale   IFR   IFR Intensivo   IFR Molto Intensivo
Visibilità : 
Base nubi : 
>= 8 km
>= 3000ft
5 / 8 km
1000 / 3000 ft
1500m / 5 km
500 / 1000 ft
800 / 1500m
200 / 500 ft
< 800m
< 200 ft
Simboli :   Temporali  Nebbia  Neve Forte  Precipitazioni Forti  Vento > 20 kt
SIGMETs :   Varie  Temporali  Ghiacco  Turbolenza  Onda orograficha  Ceneri Vulcaniche






- Altitudine del aeroporto : 6 ft
- Codice IATA : PSA


LIRP - Galileo Galilei Pisa

ULTIMO METAR :
  • 280445Z 10004KT 2500 R04R/1300 BR MIFG NSC 16/16 Q1018 TEMPO 1500

METARs OBSOLETI :
  • 280415Z 10004KT 4000 BR NSC 16/16 Q1018 TEMPO 1500
  • 280345Z 11004KT 4000 BR NSC 16/16 Q1018 TEMPO 1500
  • 280315Z 10003KT 4000 BR NSC 16/16 Q1018 TEMPO 3000
  • 280245Z 10003KT 5000 BR NSC 16/16 Q1018 TEMPO 3000

TAF TAF LIRP
Valido dal 28 a 00 ore il 29 a 00 ore UTC


272300Z 2800/2824 15003KT CAVOK
PROB40
TEMPO 2800/2806 3000 BR NSC
BECMG 2806/2809 02006KT



MetMap, La meteo Aeronautica in un colpo d'occhio ! - Copyright ORBIFLY Dicembre 2007 - Disclaimer

ORBIFLY MET'MAP TEAM :

Programmazione e sviluppo : Alexandra Zaïnal
Concezione : Baudouin d'Aumeries
Aiuto per la programmazione : Marc-Olivier Méhu
Supporto tecnico e logistico : Manuel Goepfert
Aiuto per la traduzione : Arnaldo La Scala

Contatto : metmap@orbifly.com




FONTI E CREDITI :

   NOAA